createdAt,value
2022-08-16T00:01:24.407Z,23.56
2022-08-16T00:03:53.975Z,23.49
2022-08-16T00:06:22.777Z,23.41
2022-08-16T00:08:49.964Z,23.34
2022-08-16T00:11:17.536Z,23.27
2022-08-16T00:13:53.403Z,23.24
2022-08-16T00:17:06.162Z,23.24
2022-08-16T00:19:41.155Z,23.20
2022-08-16T00:22:12.809Z,23.12
2022-08-16T00:24:44.824Z,23.11
2022-08-16T00:27:14.777Z,23.09
2022-08-16T00:29:42.593Z,23.10
2022-08-16T00:32:11.038Z,23.09
2022-08-16T00:34:43.274Z,23.13
2022-08-16T00:37:17.018Z,23.08
2022-08-16T00:39:45.093Z,23.06
2022-08-16T00:42:29.983Z,22.97
2022-08-16T00:45:25.449Z,22.98
2022-08-16T00:47:54.696Z,22.96
2022-08-16T00:50:36.262Z,22.96
2022-08-16T00:53:12.860Z,22.93
2022-08-16T00:55:47.659Z,22.90
2022-08-16T00:58:34.279Z,22.92
2022-08-16T01:01:03.675Z,22.87
2022-08-16T01:03:41.550Z,22.90
2022-08-16T01:06:40.075Z,22.90
2022-08-16T01:09:01.358Z,22.90
2022-08-16T01:11:29.438Z,22.88
2022-08-16T01:14:07.173Z,22.90
2022-08-16T01:16:35.314Z,22.93
2022-08-16T01:19:41.595Z,22.90
2022-08-16T01:22:47.976Z,22.87
2022-08-16T01:25:33.853Z,22.85
2022-08-16T01:28:08.129Z,22.81
2022-08-16T01:30:49.886Z,22.78
2022-08-16T01:33:22.639Z,22.77
2022-08-16T01:36:00.248Z,22.78
2022-08-16T01:38:34.711Z,22.75
2022-08-16T01:41:08.330Z,22.77
2022-08-16T01:43:39.366Z,22.75
2022-08-16T01:46:39.920Z,22.80
2022-08-16T01:49:24.134Z,22.88
2022-08-16T01:52:29.301Z,22.90
2022-08-16T01:54:58.087Z,23.00
2022-08-16T01:57:28.422Z,22.98
2022-08-16T01:59:59.835Z,23.06
2022-08-16T02:02:28.797Z,23.14
2022-08-16T02:04:58.002Z,23.17
2022-08-16T02:07:26.657Z,23.20
2022-08-16T02:09:58.842Z,23.17
2022-08-16T02:12:50.595Z,23.10
2022-08-16T02:15:24.855Z,23.13
2022-08-16T02:17:54.314Z,23.18
2022-08-16T02:20:26.135Z,23.16
2022-08-16T02:22:55.305Z,23.12
2022-08-16T02:25:23.030Z,23.09
2022-08-16T02:27:51.079Z,23.10
2022-08-16T02:30:37.473Z,23.06
2022-08-16T02:33:13.116Z,23.11
2022-08-16T02:35:54.500Z,23.11
2022-08-16T02:38:27.818Z,23.11
2022-08-16T02:40:56.871Z,23.11
2022-08-16T02:43:27.748Z,23.12
2022-08-16T02:45:56.384Z,23.11
2022-08-16T02:48:28.354Z,23.12
2022-08-16T02:51:06.193Z,23.19
2022-08-16T02:53:45.953Z,23.17
2022-08-16T02:56:16.556Z,23.20
2022-08-16T02:58:50.667Z,23.19
2022-08-16T03:01:24.571Z,23.17
2022-08-16T03:04:40.063Z,23.11
2022-08-16T03:06:56.781Z,23.07
2022-08-16T03:09:28.757Z,23.04
2022-08-16T03:11:57.017Z,23.04
2022-08-16T03:14:24.692Z,23.02
2022-08-16T03:16:58.722Z,23.01
2022-08-16T03:19:48.715Z,22.94
2022-08-16T03:22:19.279Z,22.89
2022-08-16T03:24:55.121Z,22.86
2022-08-16T03:27:31.374Z,22.86
2022-08-16T03:30:16.420Z,22.82
2022-08-16T03:32:47.853Z,22.86
2022-08-16T03:35:23.016Z,22.86
2022-08-16T03:38:02.830Z,22.89
2022-08-16T03:40:34.319Z,22.83
2022-08-16T03:43:20.880Z,22.79
2022-08-16T03:45:52.370Z,22.74
2022-08-16T03:48:39.727Z,22.57
2022-08-16T03:51:12.457Z,22.50
2022-08-16T03:53:41.918Z,22.56
2022-08-16T03:56:19.643Z,22.62
2022-08-16T03:58:51.029Z,22.61
2022-08-16T04:01:21.754Z,22.61
2022-08-16T04:03:50.591Z,22.60
2022-08-16T04:06:17.537Z,22.57
2022-08-16T04:08:45.165Z,22.51
2022-08-16T04:11:16.511Z,22.53
2022-08-16T04:14:01.187Z,22.57
2022-08-16T04:16:32.312Z,22.55
2022-08-16T04:19:02.616Z,22.56
2022-08-16T04:21:34.359Z,22.53
2022-08-16T04:24:03.234Z,22.52
2022-08-16T04:26:32.333Z,22.50
2022-08-16T04:29:14.713Z,22.57
2022-08-16T04:31:43.788Z,22.68
2022-08-16T04:34:10.689Z,22.74
2022-08-16T04:36:39.958Z,22.81
2022-08-16T04:39:06.759Z,22.92
2022-08-16T04:41:37.498Z,22.86
2022-08-16T04:44:52.827Z,22.84
2022-08-16T04:47:01.392Z,22.78
2022-08-16T04:49:43.791Z,22.70
2022-08-16T04:52:33.134Z,22.68
2022-08-16T04:55:00.311Z,22.66
2022-08-16T04:57:29.932Z,22.69
2022-08-16T04:59:57.368Z,22.83
2022-08-16T05:02:41.606Z,22.89
2022-08-16T05:05:17.056Z,23.02
2022-08-16T05:07:58.462Z,23.05
2022-08-16T05:10:29.603Z,23.14
2022-08-16T05:12:59.050Z,23.18
2022-08-16T05:15:26.521Z,23.22
2022-08-16T05:17:58.662Z,23.23
2022-08-16T05:20:39.349Z,23.34
2022-08-16T05:23:16.928Z,23.52
2022-08-16T05:25:48.257Z,23.69
2022-08-16T05:28:17.133Z,23.88
2022-08-16T05:30:45.433Z,23.97
2022-08-16T05:33:18.289Z,24.12
2022-08-16T05:35:54.818Z,24.27
2022-08-16T05:38:32.922Z,24.36
2022-08-16T05:41:09.250Z,24.45
2022-08-16T05:43:43.516Z,24.60
2022-08-16T05:46:29.489Z,24.72
2022-08-16T05:49:09.116Z,24.85
2022-08-16T05:51:40.196Z,24.95
2022-08-16T05:54:11.689Z,25.04
2022-08-16T05:56:43.005Z,25.13
2022-08-16T05:59:10.748Z,25.22
2022-08-16T06:01:39.627Z,25.31
2022-08-16T06:04:12.872Z,25.35
2022-08-16T06:06:56.729Z,25.37
2022-08-16T06:09:42.554Z,25.51
2022-08-16T06:12:27.547Z,25.63
2022-08-16T06:14:59.539Z,25.71
2022-08-16T06:17:43.118Z,25.79
2022-08-16T06:20:25.680Z,25.91
2022-08-16T06:23:04.175Z,26.09
2022-08-16T06:25:39.766Z,26.23
2022-08-16T06:28:16.644Z,26.31
2022-08-16T06:30:45.424Z,26.38
2022-08-16T06:33:22.382Z,26.47
2022-08-16T06:35:59.492Z,26.53
2022-08-16T06:38:32.646Z,26.62
2022-08-16T06:41:06.423Z,26.67
2022-08-16T06:43:41.618Z,26.71
2022-08-16T06:46:23.004Z,26.78
2022-08-16T06:48:59.005Z,26.82
2022-08-16T06:51:48.258Z,26.88
2022-08-16T06:54:13.905Z,26.93
2022-08-16T06:56:42.368Z,26.95
2022-08-16T06:59:09.339Z,27.00
2022-08-16T07:01:44.888Z,27.00
2022-08-16T07:04:33.068Z,27.17
2022-08-16T07:07:05.763Z,27.23
2022-08-16T07:09:32.793Z,27.29
2022-08-16T07:12:03.522Z,27.25
2022-08-16T07:14:31.583Z,27.16
2022-08-16T07:16:59.817Z,27.10
2022-08-16T07:20:02.727Z,27.18
2022-08-16T07:22:38.285Z,27.24
2022-08-16T07:25:13.506Z,27.34
2022-08-16T07:27:41.925Z,27.45
2022-08-16T07:30:39.147Z,27.57
2022-08-16T07:33:05.683Z,27.69
2022-08-16T07:35:34.473Z,27.85
2022-08-16T07:38:02.174Z,27.95
2022-08-16T07:40:57.989Z,28.17
2022-08-16T07:43:17.566Z,28.43
2022-08-16T07:45:48.249Z,28.63
2022-08-16T07:48:20.351Z,28.82
2022-08-16T07:50:56.902Z,28.93
2022-08-16T07:53:29.610Z,28.95
2022-08-16T07:56:00.332Z,29.08
2022-08-16T07:58:33.779Z,29.18
2022-08-16T08:01:05.707Z,29.22
2022-08-16T08:03:42.568Z,29.19
2022-08-16T08:06:12.331Z,29.00
2022-08-16T08:08:50.424Z,28.76
2022-08-16T08:11:21.526Z,28.46
2022-08-16T08:13:51.043Z,28.23
2022-08-16T08:16:21.201Z,28.07
2022-08-16T08:18:56.214Z,27.96
2022-08-16T08:21:58.324Z,27.99
2022-08-16T08:24:15.375Z,27.98
2022-08-16T08:26:43.042Z,27.97
2022-08-16T08:29:10.087Z,28.06
2022-08-16T08:31:42.152Z,28.40
2022-08-16T08:34:09.144Z,28.75
2022-08-16T08:36:40.021Z,28.94
2022-08-16T08:39:13.194Z,28.71
2022-08-16T08:41:43.289Z,28.45
2022-08-16T08:44:28.748Z,28.44
2022-08-16T08:47:00.036Z,28.88
2022-08-16T08:49:46.705Z,29.40
2022-08-16T08:52:33.621Z,29.82
2022-08-16T08:55:09.511Z,29.88
2022-08-16T08:57:45.071Z,29.66
2022-08-16T09:00:15.523Z,29.39
2022-08-16T09:02:45.724Z,28.96
2022-08-16T09:05:22.283Z,28.50
2022-08-16T09:07:54.684Z,28.15
2022-08-16T09:10:29.380Z,27.81
2022-08-16T09:12:57.642Z,27.66
2022-08-16T09:15:26.340Z,27.54
2022-08-16T09:18:25.372Z,27.41
2022-08-16T09:20:59.074Z,27.33
2022-08-16T09:23:31.391Z,27.21
2022-08-16T09:26:44.759Z,27.04
2022-08-16T09:29:15.438Z,27.06
2022-08-16T09:31:41.941Z,27.02
2022-08-16T09:34:10.426Z,26.93
2022-08-16T09:36:45.188Z,26.88
2022-08-16T09:39:16.151Z,26.79
2022-08-16T09:41:53.150Z,26.72
2022-08-16T09:45:09.076Z,26.67
2022-08-16T09:47:11.270Z,26.67
2022-08-16T09:49:40.981Z,26.60
2022-08-16T09:52:09.995Z,26.51
2022-08-16T09:54:40.399Z,26.52
2022-08-16T09:57:12.119Z,26.55
2022-08-16T09:59:42.190Z,26.57
2022-08-16T10:02:22.943Z,26.62
2022-08-16T10:04:57.300Z,26.62
2022-08-16T10:07:38.237Z,26.61
2022-08-16T10:10:12.038Z,26.65
2022-08-16T10:12:57.337Z,26.52
2022-08-16T10:15:30.130Z,26.59
2022-08-16T10:17:59.860Z,26.67
2022-08-16T10:20:43.014Z,26.51
2022-08-16T10:23:17.246Z,26.36
2022-08-16T10:27:18.202Z,26.49
2022-08-16T10:28:40.098Z,26.37
2022-08-16T10:31:11.726Z,26.51
2022-08-16T10:33:40.354Z,26.40
2022-08-16T10:36:09.662Z,26.48
2022-08-16T10:38:42.383Z,26.50
2022-08-16T10:41:11.197Z,26.47
2022-08-16T10:43:43.253Z,26.45
2022-08-16T10:46:40.135Z,26.51
2022-08-16T10:49:05.056Z,26.52
2022-08-16T10:51:34.168Z,26.38
2022-08-16T10:54:29.578Z,26.34
2022-08-16T10:57:04.471Z,26.39
2022-08-16T10:59:45.819Z,26.25
2022-08-16T11:02:59.533Z,26.37
2022-08-16T11:05:16.245Z,26.47
2022-08-16T11:07:52.433Z,26.58
2022-08-16T11:19:06.441Z,26.77
2022-08-16T11:24:42.879Z,26.78
2022-08-16T11:27:23.679Z,26.83
2022-08-16T11:29:56.506Z,26.84
2022-08-16T11:32:29.901Z,26.89
2022-08-16T11:35:16.117Z,26.82
2022-08-16T11:40:47.032Z,26.81
2022-08-16T11:43:26.567Z,26.87
2022-08-16T11:45:56.594Z,26.89
2022-08-16T11:48:29.942Z,26.92
2022-08-16T11:50:57.529Z,26.92
2022-08-16T11:53:24.988Z,26.91
2022-08-16T11:55:54.893Z,26.88
2022-08-16T11:58:25.978Z,26.86
2022-08-16T12:00:57.438Z,26.84
2022-08-16T12:03:34.288Z,26.82
2022-08-16T12:06:24.937Z,26.81
2022-08-16T12:09:01.092Z,26.83
2022-08-16T12:11:31.701Z,26.85
2022-08-16T12:14:07.221Z,26.88
2022-08-16T12:16:35.569Z,26.89
2022-08-16T12:19:10.436Z,26.86
2022-08-16T12:21:57.758Z,26.84
2022-08-16T12:24:27.227Z,26.85
2022-08-16T12:26:55.177Z,26.88
2022-08-16T12:29:22.708Z,26.88
2022-08-16T12:31:59.268Z,26.90
2022-08-16T12:34:29.526Z,26.87
2022-08-16T12:36:56.702Z,26.88
2022-08-16T12:39:23.803Z,26.88
2022-08-16T12:41:56.427Z,26.83
2022-08-16T12:44:26.327Z,26.73
2022-08-16T12:47:17.520Z,26.77
2022-08-16T12:49:44.290Z,26.64
2022-08-16T12:52:32.542Z,26.61
2022-08-16T12:54:59.896Z,26.50
2022-08-16T12:57:36.464Z,26.43
2022-08-16T13:00:10.931Z,26.38
2022-08-16T13:02:38.066Z,26.48
2022-08-16T13:05:06.901Z,26.39
2022-08-16T13:07:37.478Z,26.40
2022-08-16T13:10:21.342Z,26.44
2022-08-16T13:13:01.956Z,26.52
2022-08-16T13:15:30.723Z,26.59
2022-08-16T13:18:24.265Z,26.63
2022-08-16T13:20:51.911Z,26.62
2022-08-16T13:23:19.351Z,26.73
2022-08-16T13:25:49.974Z,26.64
2022-08-16T13:28:19.095Z,26.60
2022-08-16T13:30:51.411Z,26.67
2022-08-16T13:33:30.473Z,26.65
2022-08-16T13:36:01.415Z,26.65
2022-08-16T13:38:31.463Z,26.65
2022-08-16T13:41:08.426Z,26.64
2022-08-16T13:43:37.936Z,26.64
2022-08-16T13:46:06.555Z,26.56
2022-08-16T13:48:42.993Z,26.54
2022-08-16T13:51:17.610Z,26.53
2022-08-16T13:53:59.163Z,26.47
2022-08-16T13:56:38.078Z,26.48
2022-08-16T13:59:19.862Z,26.47
2022-08-16T14:01:55.198Z,26.42
2022-08-16T14:04:28.851Z,26.45
2022-08-16T14:06:57.804Z,26.45
2022-08-16T14:09:27.215Z,26.42
2022-08-16T14:11:57.527Z,26.47
2022-08-16T14:14:28.618Z,26.48
2022-08-16T14:16:58.714Z,26.48
2022-08-16T14:19:27.947Z,26.47
2022-08-16T14:22:13.651Z,26.45
2022-08-16T14:24:47.863Z,26.43
2022-08-16T14:27:23.881Z,26.42
2022-08-16T14:29:54.264Z,26.42
2022-08-16T14:32:32.795Z,26.35
2022-08-16T14:35:14.925Z,26.28
2022-08-16T14:37:42.956Z,26.27
2022-08-16T14:40:14.916Z,26.34
2022-08-16T14:42:44.128Z,26.26
2022-08-16T14:45:15.866Z,26.23
2022-08-16T14:47:44.262Z,26.25
2022-08-16T14:50:16.506Z,26.30
2022-08-16T14:53:05.504Z,26.38
2022-08-16T14:55:36.439Z,26.34
2022-08-16T14:58:05.091Z,26.34
2022-08-16T15:00:36.395Z,26.25
2022-08-16T15:03:09.629Z,26.26
2022-08-16T15:05:40.280Z,26.28
2022-08-16T15:08:08.542Z,26.29
2022-08-16T15:10:37.355Z,26.34
2022-08-16T15:13:09.701Z,26.34
2022-08-16T15:15:38.448Z,26.24
2022-08-16T15:18:06.205Z,26.30
2022-08-16T15:20:38.458Z,26.32
2022-08-16T15:23:08.899Z,26.48
2022-08-16T15:25:47.228Z,26.42
2022-08-16T15:28:31.981Z,26.39
2022-08-16T15:31:03.883Z,26.46
2022-08-16T15:33:44.318Z,26.52
2022-08-16T15:36:19.520Z,26.55
2022-08-16T15:39:03.873Z,26.44
2022-08-16T15:41:42.737Z,26.54
2022-08-16T15:44:22.293Z,26.68
2022-08-16T15:46:59.854Z,26.69
2022-08-16T15:49:37.641Z,26.58
2022-08-16T15:52:20.852Z,26.68
2022-08-16T15:54:53.234Z,26.64
2022-08-16T15:57:27.810Z,26.62
2022-08-16T16:00:04.257Z,26.54
2022-08-16T16:02:36.763Z,26.49
2022-08-16T16:05:09.904Z,26.48
2022-08-16T16:07:55.921Z,26.44
2022-08-16T16:10:29.309Z,26.43
2022-08-16T16:13:00.444Z,26.43
2022-08-16T16:15:31.784Z,26.36
2022-08-16T16:17:58.836Z,26.31
2022-08-16T16:20:29.182Z,26.35
2022-08-16T16:23:10.315Z,26.47
2022-08-16T16:25:43.981Z,26.42
2022-08-16T16:29:06.255Z,26.41
2022-08-16T16:31:09.405Z,26.38
2022-08-16T16:33:41.933Z,26.35
2022-08-16T16:36:17.187Z,26.39
2022-08-16T16:38:47.406Z,26.40
2022-08-16T16:41:20.447Z,26.38
2022-08-16T16:43:53.331Z,26.39
2022-08-16T16:46:39.085Z,26.37
2022-08-16T16:49:09.410Z,26.32
2022-08-16T16:51:40.554Z,26.32
2022-08-16T16:54:09.683Z,26.35
2022-08-16T16:56:40.368Z,26.36
2022-08-16T16:59:19.772Z,26.39
2022-08-16T17:02:00.269Z,26.38
2022-08-16T17:04:36.911Z,26.40
2022-08-16T17:07:04.270Z,26.37
2022-08-16T17:09:40.297Z,26.37
2022-08-16T17:12:22.665Z,26.34
2022-08-16T17:14:58.320Z,26.32
2022-08-16T17:17:26.259Z,26.31
2022-08-16T17:19:54.269Z,26.27
2022-08-16T17:22:23.150Z,26.28
2022-08-16T17:24:53.179Z,26.31
2022-08-16T17:27:33.925Z,26.32
2022-08-16T17:30:16.097Z,26.30
2022-08-16T17:32:50.305Z,26.29
2022-08-16T17:35:33.679Z,26.27
2022-08-16T17:38:06.067Z,26.25
2022-08-16T17:40:55.159Z,26.16
2022-08-16T17:43:44.390Z,26.25
2022-08-16T17:46:50.734Z,26.24
2022-08-16T17:49:00.507Z,26.25
2022-08-16T17:51:28.411Z,26.22
2022-08-16T17:53:55.520Z,26.18
2022-08-16T17:56:22.785Z,26.17
2022-08-16T17:58:49.702Z,26.16
2022-08-16T18:01:27.715Z,26.14
2022-08-16T18:04:06.683Z,26.08
2022-08-16T18:06:38.491Z,26.06
2022-08-16T18:09:07.403Z,26.19
2022-08-16T18:11:40.680Z,26.29
2022-08-16T18:14:09.308Z,26.38
2022-08-16T18:16:36.236Z,26.47
2022-08-16T18:19:03.277Z,26.35
2022-08-16T18:21:48.660Z,26.22
2022-08-16T18:24:15.618Z,26.19
2022-08-16T18:26:42.450Z,26.14
2022-08-16T18:29:09.327Z,26.08
2022-08-16T18:31:36.678Z,26.00
2022-08-16T18:34:04.976Z,25.89
2022-08-16T18:36:33.265Z,25.93
2022-08-16T18:39:00.446Z,25.96
2022-08-16T18:41:30.263Z,26.02
2022-08-16T18:44:26.773Z,25.91
2022-08-16T18:46:50.677Z,25.79
2022-08-16T18:49:19.585Z,25.80
2022-08-16T18:51:46.925Z,25.75
2022-08-16T18:54:19.568Z,25.66
2022-08-16T18:56:55.956Z,25.52
2022-08-16T18:59:29.504Z,25.44
2022-08-16T19:01:59.969Z,25.42
2022-08-16T19:04:55.992Z,25.34
2022-08-16T19:07:17.810Z,25.12
2022-08-16T19:09:44.746Z,25.06
2022-08-16T19:12:11.650Z,25.08
2022-08-16T19:14:45.305Z,25.10
2022-08-16T19:17:12.414Z,24.98
2022-08-16T19:19:39.213Z,24.89
2022-08-16T19:22:06.512Z,24.87
2022-08-16T19:24:33.387Z,24.90
2022-08-16T19:27:01.609Z,24.84
2022-08-16T19:29:28.991Z,24.82
2022-08-16T19:31:55.815Z,24.78
2022-08-16T19:34:22.600Z,24.75
2022-08-16T19:36:49.404Z,24.69
2022-08-16T19:39:17.352Z,24.68
2022-08-16T19:41:53.666Z,24.87
2022-08-16T19:44:22.868Z,24.78
2022-08-16T19:46:50.322Z,24.62
2022-08-16T19:49:17.744Z,24.50
2022-08-16T19:51:46.748Z,24.43
2022-08-16T19:54:13.706Z,24.36
2022-08-16T19:56:40.532Z,24.33
2022-08-16T19:59:39.896Z,24.34
2022-08-16T20:01:54.754Z,24.37
2022-08-16T20:04:23.146Z,24.34
2022-08-16T20:06:52.248Z,24.29
2022-08-16T20:09:21.419Z,24.35
2022-08-16T20:11:51.994Z,24.43
2022-08-16T20:14:25.572Z,24.37
2022-08-16T20:16:56.491Z,24.31
2022-08-16T20:19:25.013Z,24.25
2022-08-16T20:21:51.979Z,24.18
2022-08-16T20:24:36.058Z,24.14
2022-08-16T20:27:07.574Z,24.12
2022-08-16T20:29:35.562Z,24.15
2022-08-16T20:32:05.526Z,24.18
2022-08-16T20:34:33.163Z,24.17
2022-08-16T20:37:00.114Z,24.17
2022-08-16T20:39:27.454Z,24.18
2022-08-16T20:41:54.282Z,24.16
2022-08-16T20:44:22.693Z,24.16
2022-08-16T20:46:50.102Z,24.28
2022-08-16T20:49:16.967Z,24.35
2022-08-16T20:51:49.916Z,24.37
2022-08-16T20:54:23.109Z,24.55
2022-08-16T20:56:54.005Z,24.45
2022-08-16T20:59:22.240Z,24.46
2022-08-16T21:01:50.115Z,24.75
2022-08-16T21:04:25.248Z,24.62
2022-08-16T21:06:54.992Z,24.70
2022-08-16T21:09:31.316Z,24.81
2022-08-16T21:12:02.664Z,24.92
2022-08-16T21:14:33.816Z,24.96
2022-08-16T21:17:04.232Z,24.91
2022-08-16T21:19:31.823Z,24.87
2022-08-16T21:21:58.710Z,24.89
2022-08-16T21:24:25.470Z,24.87
2022-08-16T21:26:56.237Z,24.83
2022-08-16T21:29:39.017Z,24.86
2022-08-16T21:32:19.621Z,24.79
2022-08-16T21:35:13.907Z,24.77
2022-08-16T21:37:41.469Z,24.71
2022-08-16T21:40:10.494Z,24.70
2022-08-16T21:42:41.419Z,24.57
2022-08-16T21:45:13.538Z,24.54
2022-08-16T21:47:40.774Z,24.54
2022-08-16T21:50:10.635Z,24.57
2022-08-16T21:52:37.871Z,24.51
2022-08-16T21:55:06.035Z,24.60
2022-08-16T21:57:35.506Z,24.59
2022-08-16T22:00:11.648Z,24.65
2022-08-16T22:02:39.108Z,24.60
2022-08-16T22:05:06.560Z,24.58
2022-08-16T22:07:33.405Z,24.67
2022-08-16T22:10:00.297Z,24.59
2022-08-16T22:12:47.784Z,24.46
2022-08-16T22:15:15.619Z,24.30
2022-08-16T22:17:43.032Z,24.34
2022-08-16T22:20:11.024Z,24.43
2022-08-16T22:22:40.327Z,24.32
2022-08-16T22:25:07.563Z,24.31
2022-08-16T22:27:34.748Z,24.37
2022-08-16T22:30:01.702Z,24.43
2022-08-16T22:32:29.058Z,24.42
2022-08-16T22:34:56.611Z,24.48
2022-08-16T22:37:38.539Z,24.47
2022-08-16T22:40:25.370Z,24.40
2022-08-16T22:42:54.319Z,24.35
2022-08-16T22:45:23.165Z,24.30
2022-08-16T22:47:50.303Z,24.26
2022-08-16T22:50:18.310Z,24.25
2022-08-16T22:52:56.677Z,24.30
2022-08-16T22:55:26.701Z,24.27
2022-08-16T22:57:54.842Z,24.13
2022-08-16T23:00:27.444Z,24.02
2022-08-16T23:03:05.520Z,24.05
2022-08-16T23:05:42.644Z,24.22
2022-08-16T23:08:14.859Z,24.38
2022-08-16T23:10:59.583Z,24.44
2022-08-16T23:13:26.816Z,24.50
2022-08-16T23:16:02.236Z,24.14
2022-08-16T23:18:31.176Z,24.26
2022-08-16T23:21:01.684Z,24.45
2022-08-16T23:23:30.002Z,24.40
2022-08-16T23:25:58.755Z,24.36
2022-08-16T23:28:30.426Z,24.31
2022-08-16T23:30:58.908Z,24.32
2022-08-16T23:33:28.474Z,24.14
2022-08-16T23:35:58.788Z,24.05
2022-08-16T23:38:38.198Z,24.12
2022-08-16T23:41:11.441Z,24.06
2022-08-16T23:43:44.027Z,24.07
2022-08-16T23:46:19.374Z,24.08
2022-08-16T23:49:58.570Z,23.92
2022-08-16T23:51:34.386Z,23.75
2022-08-16T23:54:01.273Z,23.73
2022-08-16T23:56:29.983Z,23.65
2022-08-16T23:59:05.613Z,23.54
